Time;durP1;ratioP1;P1;durP2;ratioP2;P2;SDS_P1;SDS_P2;PMS_P1;PMS_P2;Temp;Humidity;BMP_temperature;BMP_pressure;BME280_temperature;BME280_humidity;BME280_pressure;Samples;Min_cycle;Max_cycle;Signal;HPM_P1;HPM_P2
2021/10/03 00:01:19;;;;;;;;;;;19.20;99.90;;;;;;5052646;28;20317;-74
2021/10/03 00:03:47;;;;;;;;;;;19.20;99.90;;;;;;5051714;28;20007;-73
2021/10/03 00:06:14;;;;;;;;;;;19.30;99.90;;;;;;5052709;28;20006;-73
2021/10/03 00:08:41;;;;;;;;;;;19.50;99.90;;;;;;5052622;28;19908;-74
2021/10/03 00:11:08;;;;;;;;;;;19.60;99.90;;;;;;5052293;28;19917;-74
2021/10/03 00:13:35;;;;;;;;;;;19.60;99.90;;;;;;5052336;28;19909;-74
2021/10/03 00:16:02;;;;;;;;;;;19.80;99.90;;;;;;5052357;28;19909;-75
2021/10/03 00:18:30;;;;;;;;;;;19.80;99.90;;;;;;5051961;28;19909;-72
2021/10/03 00:20:57;;;;;;;;;;;19.90;99.90;;;;;;5052425;28;19956;-74
2021/10/03 00:23:23;;;;;;;;;;;19.90;99.90;;;;;;5052373;28;19966;-73
2021/10/03 00:25:50;;;;;;;;;;;20.00;99.90;;;;;;5051722;28;19955;-73
2021/10/03 00:28:18;;;;;;;;;;;20.20;99.90;;;;;;5052474;28;19916;-73
2021/10/03 00:30:45;;;;;;;;;;;20.40;99.90;;;;;;5052640;28;19916;-73
2021/10/03 00:33:11;;;;;;;;;;;20.30;99.90;;;;;;5052015;28;19909;-73
2021/10/03 00:35:38;;;;;;;;;;;20.10;99.90;;;;;;5052214;28;20335;-73
2021/10/03 00:38:07;;;;;;;;;;;20.20;99.90;;;;;;5052474;28;19909;-73
2021/10/03 00:40:36;;;;;;;;;;;20.40;99.90;;;;;;5052345;28;19915;-73
2021/10/03 00:43:03;;;;;;;;;;;20.60;99.90;;;;;;5052185;28;20320;-73
2021/10/03 00:45:30;;;;;;;;;;;20.60;99.90;;;;;;5052373;28;20402;-73
2021/10/03 00:47:58;;;;;;;;;;;20.80;99.90;;;;;;5054476;28;19936;-73
2021/10/03 00:50:25;;;;;;;;;;;20.70;99.90;;;;;;5066614;28;19920;-74
2021/10/03 00:52:51;;;;;;;;;;;20.70;99.90;;;;;;5052327;28;20118;-74
2021/10/03 00:55:20;;;;;;;;;;;20.90;99.90;;;;;;5052014;28;19959;-73
2021/10/03 00:57:49;;;;;;;;;;;21.20;99.90;;;;;;5051881;28;19935;-73
2021/10/03 01:00:18;;;;;;;;;;;21.80;98.20;;;;;;5052154;28;19952;-73
2021/10/03 01:02:45;;;;;;;;;;;22.20;97.50;;;;;;5051792;28;19999;-72
2021/10/03 01:05:11;;;;;;;;;;;22.20;97.30;;;;;;5051437;28;20347;-73
2021/10/03 01:07:38;;;;;;;;;;;22.20;97.30;;;;;;5051623;28;20348;-74
2021/10/03 01:10:12;;;;;;;;;;;22.20;97.30;;;;;;5051875;28;19925;-73
2021/10/03 01:12:40;;;;;;;;;;;22.50;97.80;;;;;;5051842;28;20360;-73
2021/10/03 01:15:07;;;;;;;;;;;22.60;96.50;;;;;;5051737;28;19915;-73
2021/10/03 01:17:34;;;;;;;;;;;22.60;95.50;;;;;;5051564;28;19909;-73
2021/10/03 01:20:01;;;;;;;;;;;22.30;95.80;;;;;;5052195;28;19909;-73
2021/10/03 01:22:27;;;;;;;;;;;22.10;95.90;;;;;;5051781;28;19909;-73
2021/10/03 01:24:54;;;;;;;;;;;22.50;95.60;;;;;;5051903;28;19994;-74
2021/10/03 01:27:21;;;;;;;;;;;22.30;95.30;;;;;;5051849;28;19909;-74
2021/10/03 01:29:49;;;;;;;;;;;22.20;95.70;;;;;;5051375;28;19932;-73
2021/10/03 01:32:17;;;;;;;;;;;22.00;95.70;;;;;;5051633;28;19909;-72
2021/10/03 01:34:44;;;;;;;;;;;21.90;96.30;;;;;;5053543;28;19920;-73
2021/10/03 01:37:10;;;;;;;;;;;21.80;95.50;;;;;;5057886;28;20372;-73
2021/10/03 01:39:40;;;;;;;;;;;21.70;95.70;;;;;;5058142;28;19908;-73
2021/10/03 01:42:07;;;;;;;;;;;21.80;96.00;;;;;;5058018;28;19909;-72
2021/10/03 01:44:34;;;;;;;;;;;21.80;96.40;;;;;;5057588;28;19952;-73
2021/10/03 01:47:01;;;;;;;;;;;21.90;96.70;;;;;;5057541;28;19925;-74
2021/10/03 01:49:29;;;;;;;;;;;21.70;96.30;;;;;;5056279;28;19955;-72
2021/10/03 01:51:57;;;;;;;;;;;21.70;96.70;;;;;;5056459;28;20363;-73
2021/10/03 01:54:24;;;;;;;;;;;21.70;96.20;;;;;;5056524;28;20375;-73
2021/10/03 01:56:51;;;;;;;;;;;21.80;97.20;;;;;;5055771;28;20330;-72
2021/10/03 01:59:17;;;;;;;;;;;21.80;96.40;;;;;;5054903;28;20268;-73
2021/10/03 02:01:47;;;;;;;;;;;21.80;96.10;;;;;;5054663;28;20367;-73
2021/10/03 02:04:17;;;;;;;;;;;21.80;96.70;;;;;;5086385;28;20002;-73
2021/10/03 02:06:44;;;;;;;;;;;21.70;95.10;;;;;;5054883;28;19974;-72
2021/10/03 02:09:12;;;;;;;;;;;21.80;95.70;;;;;;5055436;28;19913;-73
2021/10/03 02:11:43;;;;;;;;;;;21.90;95.60;;;;;;5086202;28;19966;-73
2021/10/03 02:14:11;;;;;;;;;;;21.90;95.90;;;;;;5054709;28;19912;-73
2021/10/03 02:16:37;;;;;;;;;;;21.90;96.40;;;;;;5054494;28;20364;-72
2021/10/03 02:19:04;;;;;;;;;;;21.90;96.20;;;;;;5055937;28;20371;-73
2021/10/03 02:21:31;;;;;;;;;;;21.90;95.50;;;;;;5060000;28;19909;-72
2021/10/03 02:23:58;;;;;;;;;;;22.10;94.00;;;;;;5061094;28;19951;-73
2021/10/03 02:26:25;;;;;;;;;;;22.30;94.20;;;;;;5055492;28;19909;-73
2021/10/03 02:28:51;;;;;;;;;;;22.40;93.50;;;;;;5087387;28;19952;-72
2021/10/03 02:31:18;;;;;;;;;;;22.40;92.10;;;;;;5053716;28;20303;-73
2021/10/03 02:33:46;;;;;;;;;;;22.40;92.10;;;;;;5054255;28;19916;-73
2021/10/03 02:36:14;;;;;;;;;;;22.40;92.20;;;;;;5054744;28;20003;-75
2021/10/03 02:38:41;;;;;;;;;;;22.50;91.40;;;;;;5054494;28;19916;-73
2021/10/03 02:41:08;;;;;;;;;;;22.50;91.00;;;;;;5054048;28;19909;-73
2021/10/03 02:43:36;;;;;;;;;;;22.50;90.60;;;;;;5053768;28;20382;-74
2021/10/03 02:46:03;;;;;;;;;;;22.70;90.80;;;;;;5054175;28;19908;-73
2021/10/03 02:48:33;;;;;;;;;;;22.70;89.80;;;;;;5052909;28;19924;-73
2021/10/03 02:51:00;;;;;;;;;;;22.60;90.10;;;;;;5054431;28;19931;-72
2021/10/03 02:53:27;;;;;;;;;;;22.50;90.40;;;;;;5055105;28;19909;-74
2021/10/03 02:55:54;;;;;;;;;;;22.50;90.30;;;;;;5056097;28;20278;-72
2021/10/03 02:58:22;;;;;;;;;;;22.50;90.50;;;;;;5055670;28;19909;-73
2021/10/03 03:00:50;;;;;;;;;;;22.60;91.40;;;;;;5055512;28;19908;-73
2021/10/03 03:03:16;;;;;;;;;;;22.70;91.00;;;;;;5055611;28;19908;-73
2021/10/03 03:05:43;;;;;;;;;;;22.90;88.30;;;;;;5054945;28;19971;-74
2021/10/03 03:08:09;;;;;;;;;;;23.00;87.60;;;;;;5055215;28;19909;-73
2021/10/03 03:10:36;;;;;;;;;;;23.00;89.20;;;;;;5055332;28;20362;-73
2021/10/03 03:13:04;;;;;;;;;;;23.00;88.90;;;;;;5054728;28;20161;-72
2021/10/03 03:15:31;;;;;;;;;;;23.00;88.50;;;;;;5054701;28;19913;-73
2021/10/03 03:17:58;;;;;;;;;;;23.00;89.40;;;;;;5054121;28;19999;-71
2021/10/03 03:20:25;;;;;;;;;;;23.10;89.30;;;;;;5057938;28;20469;-72
2021/10/03 03:22:52;;;;;;;;;;;23.00;89.00;;;;;;5074544;28;19959;-72
2021/10/03 03:25:18;;;;;;;;;;;22.90;88.50;;;;;;5074263;28;20391;-73
2021/10/03 03:27:45;;;;;;;;;;;23.00;88.90;;;;;;5072560;28;20378;-72
2021/10/03 03:30:13;;;;;;;;;;;23.00;87.90;;;;;;5072838;28;19923;-72
2021/10/03 03:32:40;;;;;;;;;;;23.10;87.10;;;;;;5073084;28;19916;-73
2021/10/03 03:35:07;;;;;;;;;;;23.20;85.80;;;;;;5073054;28;19915;-73
2021/10/03 03:37:34;;;;;;;;;;;23.40;83.40;;;;;;5072794;28;19994;-73
2021/10/03 03:40:00;;;;;;;;;;;23.30;84.40;;;;;;5073187;28;19908;-72
2021/10/03 03:42:27;;;;;;;;;;;23.30;84.70;;;;;;5072343;28;19913;-73
2021/10/03 03:44:54;;;;;;;;;;;23.20;85.60;;;;;;5072448;28;20344;-74
2021/10/03 03:47:20;;;;;;;;;;;23.10;84.60;;;;;;5072554;28;20261;-74
2021/10/03 03:49:50;;;;;;;;;;;22.90;85.50;;;;;;5072343;28;20009;-73
2021/10/03 03:52:18;;;;;;;;;;;22.70;87.90;;;;;;5072681;28;20383;-73
2021/10/03 03:54:46;;;;;;;;;;;22.70;84.90;;;;;;5075069;28;19908;-73
2021/10/03 03:57:13;;;;;;;;;;;22.70;85.80;;;;;;5073018;28;20019;-70
2021/10/03 03:59:40;;;;;;;;;;;22.90;86.40;;;;;;5072413;28;20347;-71
2021/10/03 04:02:07;;;;;;;;;;;23.00;84.30;;;;;;5072385;28;20275;-72
2021/10/03 04:04:34;;;;;;;;;;;23.30;84.30;;;;;;5072598;28;19945;-73
2021/10/03 04:07:01;;;;;;;;;;;23.40;84.10;;;;;;5072596;28;19909;-73
2021/10/03 04:09:28;;;;;;;;;;;23.40;84.70;;;;;;5072414;28;20374;-73
2021/10/03 04:11:55;;;;;;;;;;;23.40;82.90;;;;;;5072031;28;19991;-72
2021/10/03 04:14:21;;;;;;;;;;;23.30;82.50;;;;;;5072146;28;19954;-73
2021/10/03 04:16:48;;;;;;;;;;;23.20;84.00;;;;;;5072208;28;19950;-72
2021/10/03 04:19:15;;;;;;;;;;;23.10;84.40;;;;;;5072410;28;19916;-73
2021/10/03 04:21:42;;;;;;;;;;;23.00;85.40;;;;;;5072207;28;19909;-72
2021/10/03 04:24:09;;;;;;;;;;;23.10;86.10;;;;;;5072742;28;20263;-72
2021/10/03 04:26:36;;;;;;;;;;;23.00;85.90;;;;;;5072439;28;19953;-72
2021/10/03 04:29:03;;;;;;;;;;;23.00;85.90;;;;;;5071944;28;19943;-73
2021/10/03 04:31:30;;;;;;;;;;;23.10;84.10;;;;;;5071870;28;19916;-71
2021/10/03 04:33:57;;;;;;;;;;;23.10;85.00;;;;;;5072247;28;19955;-73
2021/10/03 04:36:24;;;;;;;;;;;23.30;82.80;;;;;;5072239;28;19913;-72
2021/10/03 04:38:51;;;;;;;;;;;23.30;84.50;;;;;;5072273;28;19936;-72
2021/10/03 04:41:17;;;;;;;;;;;23.30;84.70;;;;;;5072219;28;19908;-73
2021/10/03 04:43:44;;;;;;;;;;;23.30;86.00;;;;;;5071181;28;20350;-72
2021/10/03 04:46:11;;;;;;;;;;;23.20;85.20;;;;;;5072014;28;20363;-73
2021/10/03 04:48:38;;;;;;;;;;;23.10;85.20;;;;;;5072108;28;20015;-73
2021/10/03 04:51:05;;;;;;;;;;;23.00;86.40;;;;;;5071922;28;19975;-73
2021/10/03 04:53:32;;;;;;;;;;;22.80;86.10;;;;;;5070639;28;19940;-72
2021/10/03 04:55:58;;;;;;;;;;;22.80;85.90;;;;;;5072077;28;19908;-71
2021/10/03 04:58:25;;;;;;;;;;;22.80;86.50;;;;;;5071757;28;19994;-72
2021/10/03 05:00:52;;;;;;;;;;;22.70;87.30;;;;;;5072071;28;20305;-73
2021/10/03 05:03:19;;;;;;;;;;;22.90;84.00;;;;;;5072011;28;19908;-71
2021/10/03 05:05:46;;;;;;;;;;;23.10;83.40;;;;;;5071703;28;19954;-72
2021/10/03 05:08:12;;;;;;;;;;;23.00;85.80;;;;;;5072046;28;19909;-73
2021/10/03 05:10:39;;;;;;;;;;;23.00;92.60;;;;;;5072787;28;19932;-71
2021/10/03 05:13:06;;;;;;;;;;;22.60;95.20;;;;;;5075663;28;19912;-72
2021/10/03 05:15:33;;;;;;;;;;;22.30;95.30;;;;;;5074310;28;19908;-73
2021/10/03 05:18:00;;;;;;;;;;;22.10;96.00;;;;;;5075678;28;19908;-73
2021/10/03 05:20:26;;;;;;;;;;;21.90;96.90;;;;;;5075629;28;19916;-72
2021/10/03 05:22:53;;;;;;;;;;;21.80;97.20;;;;;;5075605;28;19918;-71
2021/10/03 05:25:20;;;;;;;;;;;21.70;97.90;;;;;;5075971;28;20029;-72
2021/10/03 05:27:46;;;;;;;;;;;21.60;98.40;;;;;;5076059;28;19923;-73
2021/10/03 05:30:13;;;;;;;;;;;21.70;98.80;;;;;;5083867;28;19928;-73
2021/10/03 05:32:41;;;;;;;;;;;21.60;99.00;;;;;;5076419;28;19913;-72
2021/10/03 05:35:08;;;;;;;;;;;21.50;99.30;;;;;;5080419;28;19908;-73
2021/10/03 05:37:35;;;;;;;;;;;21.40;99.80;;;;;;5077331;28;20279;-73
2021/10/03 05:40:02;;;;;;;;;;;21.30;99.90;;;;;;5075129;28;19915;-74
2021/10/03 05:42:28;;;;;;;;;;;21.30;99.90;;;;;;5075225;28;19945;-73
2021/10/03 05:44:55;;;;;;;;;;;21.20;99.90;;;;;;5075284;28;20379;-73
2021/10/03 05:47:23;;;;;;;;;;;21.10;99.90;;;;;;5075793;28;20355;-74
2021/10/03 05:49:50;;;;;;;;;;;21.10;99.90;;;;;;5075316;28;20325;-73
2021/10/03 05:52:17;;;;;;;;;;;21.00;99.90;;;;;;5075532;28;20270;-72
2021/10/03 05:54:43;;;;;;;;;;;20.90;99.90;;;;;;5074878;28;20304;-73
2021/10/03 05:57:10;;;;;;;;;;;20.90;99.90;;;;;;5074727;28;20367;-73
2021/10/03 05:59:37;;;;;;;;;;;20.70;99.90;;;;;;5074862;28;19915;-72
2021/10/03 06:02:04;;;;;;;;;;;20.70;99.90;;;;;;5075073;28;20042;-71
2021/10/03 06:04:31;;;;;;;;;;;20.70;99.90;;;;;;5074951;28;19915;-73
2021/10/03 06:06:57;;;;;;;;;;;20.70;99.90;;;;;;5074902;28;19916;-71
2021/10/03 06:09:24;;;;;;;;;;;20.70;99.90;;;;;;5074723;28;19908;-73
2021/10/03 06:11:51;;;;;;;;;;;20.70;99.90;;;;;;5073203;28;19919;-73
2021/10/03 06:14:17;;;;;;;;;;;20.70;99.90;;;;;;5074517;28;19915;-72
2021/10/03 06:16:44;;;;;;;;;;;20.70;99.90;;;;;;5074571;28;19920;-72
2021/10/03 06:19:11;;;;;;;;;;;20.60;99.90;;;;;;5074512;28;20373;-72
2021/10/03 06:21:39;;;;;;;;;;;20.60;99.90;;;;;;5073740;28;20354;-72
2021/10/03 06:24:07;;;;;;;;;;;20.60;99.90;;;;;;5070983;28;19948;-72
2021/10/03 06:26:34;;;;;;;;;;;20.50;99.90;;;;;;5073655;28;19917;-71
2021/10/03 06:29:01;;;;;;;;;;;20.50;99.90;;;;;;5073208;28;19919;-72
2021/10/03 06:31:28;;;;;;;;;;;20.40;99.90;;;;;;5074103;28;20366;-71
2021/10/03 06:33:54;;;;;;;;;;;20.30;99.90;;;;;;5073700;28;19909;-72
2021/10/03 06:36:21;;;;;;;;;;;20.20;99.90;;;;;;5074024;28;19908;-73
2021/10/03 06:38:48;;;;;;;;;;;20.20;99.90;;;;;;5073838;28;19931;-72
2021/10/03 06:41:14;;;;;;;;;;;20.20;99.90;;;;;;5073980;28;19955;-72
2021/10/03 06:43:41;;;;;;;;;;;20.10;99.90;;;;;;5073562;28;20383;-71
2021/10/03 06:46:08;;;;;;;;;;;20.10;99.90;;;;;;5074127;28;19948;-72
2021/10/03 06:48:36;;;;;;;;;;;20.10;99.90;;;;;;5074071;28;19931;-71
2021/10/03 06:51:03;;;;;;;;;;;20.00;99.90;;;;;;5074005;28;19917;-72
2021/10/03 06:53:31;;;;;;;;;;;20.00;99.90;;;;;;5073933;28;19976;-72
2021/10/03 06:55:58;;;;;;;;;;;20.00;99.90;;;;;;5055948;28;19909;-74
2021/10/03 06:58:25;;;;;;;;;;;20.00;99.90;;;;;;5053646;28;19915;-74
2021/10/03 07:00:51;;;;;;;;;;;20.00;99.90;;;;;;5053510;28;19909;-72
2021/10/03 07:03:18;;;;;;;;;;;20.00;99.90;;;;;;5053230;28;19908;-72
2021/10/03 07:05:44;;;;;;;;;;;20.00;99.90;;;;;;5056214;28;20015;-74
2021/10/03 07:08:12;;;;;;;;;;;20.00;99.90;;;;;;5053501;28;19915;-74
2021/10/03 07:10:40;;;;;;;;;;;19.90;99.90;;;;;;5053263;28;19916;-74
2021/10/03 07:13:06;;;;;;;;;;;19.90;99.90;;;;;;5053468;28;19909;-74
2021/10/03 07:15:33;;;;;;;;;;;19.90;99.90;;;;;;5053313;28;19924;-72
2021/10/03 07:18:00;;;;;;;;;;;19.90;99.90;;;;;;5052839;28;19909;-73
2021/10/03 07:20:27;;;;;;;;;;;19.80;99.90;;;;;;5053410;28;19962;-72
2021/10/03 07:22:53;;;;;;;;;;;19.70;99.90;;;;;;5053224;28;19991;-72
2021/10/03 07:25:20;;;;;;;;;;;19.70;99.90;;;;;;5053131;28;19909;-69
2021/10/03 07:27:46;;;;;;;;;;;19.70;99.90;;;;;;5052990;28;19908;-74
2021/10/03 07:30:13;;;;;;;;;;;19.70;99.90;;;;;;5053017;28;20441;-71
2021/10/03 07:32:40;;;;;;;;;;;19.60;99.90;;;;;;5052698;28;19966;-72
2021/10/03 07:35:07;;;;;;;;;;;19.60;99.90;;;;;;5052882;28;19909;-73
2021/10/03 07:37:33;;;;;;;;;;;19.60;99.90;;;;;;5052849;28;19913;-73
2021/10/03 07:40:02;;;;;;;;;;;19.60;99.90;;;;;;5053091;28;19909;-72
2021/10/03 07:42:29;;;;;;;;;;;19.50;99.90;;;;;;5051449;28;19908;-72
2021/10/03 07:44:56;;;;;;;;;;;19.60;99.90;;;;;;5052734;28;19916;-72
2021/10/03 07:47:23;;;;;;;;;;;19.50;99.90;;;;;;5052045;28;20015;-74
2021/10/03 07:49:49;;;;;;;;;;;19.50;99.90;;;;;;5052522;28;20356;-74
2021/10/03 07:52:16;;;;;;;;;;;19.50;99.90;;;;;;5052804;28;19912;-75
2021/10/03 07:54:43;;;;;;;;;;;19.50;99.90;;;;;;5052950;28;19954;-74
2021/10/03 07:57:12;;;;;;;;;;;19.40;99.90;;;;;;5052818;28;19909;-72
2021/10/03 07:59:38;;;;;;;;;;;19.40;99.90;;;;;;5052316;28;19915;-74
2021/10/03 08:02:14;;;;;;;;;;;19.40;99.90;;;;;;5052188;28;20003;-73
2021/10/03 08:04:41;;;;;;;;;;;19.40;99.90;;;;;;5052893;28;20463;-72
2021/10/03 08:07:07;;;;;;;;;;;19.50;99.90;;;;;;5052673;28;20053;-74
2021/10/03 08:09:34;;;;;;;;;;;19.40;99.90;;;;;;5052209;28;19920;-72
2021/10/03 08:12:01;;;;;;;;;;;19.40;99.90;;;;;;5052281;28;19924;-74
2021/10/03 08:14:27;;;;;;;;;;;19.40;99.90;;;;;;5052341;28;19908;-74
2021/10/03 08:16:54;;;;;;;;;;;19.40;99.90;;;;;;5051970;28;19959;-75
2021/10/03 08:19:20;;;;;;;;;;;19.30;99.90;;;;;;5051970;28;20322;-72
2021/10/03 08:21:48;;;;;;;;;;;19.30;99.90;;;;;;5052308;28;20351;-71
2021/10/03 08:24:15;;;;;;;;;;;19.30;99.90;;;;;;5052523;28;20326;-72
2021/10/03 08:26:41;;;;;;;;;;;19.30;99.90;;;;;;5052115;28;19919;-71
2021/10/03 08:29:08;;;;;;;;;;;19.30;99.90;;;;;;5052279;28;20012;-72
2021/10/03 08:31:35;;;;;;;;;;;19.30;99.90;;;;;;5051964;28;19964;-72
2021/10/03 08:34:01;;;;;;;;;;;19.30;99.90;;;;;;5052308;28;19909;-71
2021/10/03 08:36:28;;;;;;;;;;;19.30;99.90;;;;;;5052225;28;20022;-72
2021/10/03 08:38:55;;;;;;;;;;;19.30;99.90;;;;;;5053845;28;19912;-71
2021/10/03 08:41:22;;;;;;;;;;;19.20;99.90;;;;;;5052176;28;19920;-72
2021/10/03 08:43:52;;;;;;;;;;;19.30;99.90;;;;;;5052226;28;20348;-71
2021/10/03 08:46:26;;;;;;;;;;;19.20;99.90;;;;;;5054126;28;19998;-72
2021/10/03 08:48:53;;;;;;;;;;;19.20;99.90;;;;;;5056463;28;20347;-71
2021/10/03 08:51:20;;;;;;;;;;;19.20;99.90;;;;;;5056108;28;19916;-71
2021/10/03 08:53:47;;;;;;;;;;;19.20;99.90;;;;;;5056033;28;20007;-71
2021/10/03 08:56:14;;;;;;;;;;;19.20;99.90;;;;;;5056106;28;19960;-71
2021/10/03 08:58:41;;;;;;;;;;;19.10;99.90;;;;;;5055970;28;20311;-71
2021/10/03 09:01:10;;;;;;;;;;;19.10;99.90;;;;;;5056109;28;19909;-72
2021/10/03 09:03:37;;;;;;;;;;;19.10;99.90;;;;;;5055834;28;20015;-72
2021/10/03 09:06:04;;;;;;;;;;;19.10;99.90;;;;;;5055929;28;19917;-71
2021/10/03 09:08:36;;;;;;;;;;;19.10;99.90;;;;;;5055831;28;19940;-71
2021/10/03 09:11:12;;;;;;;;;;;19.10;99.90;;;;;;5055690;28;19943;-72
2021/10/03 09:13:41;;;;;;;;;;;19.10;99.90;;;;;;5055588;28;20363;-71
2021/10/03 09:16:08;;;;;;;;;;;19.10;99.90;;;;;;5055704;28;20376;-71
2021/10/03 09:18:35;;;;;;;;;;;19.10;99.90;;;;;;5055738;28;19913;-72
2021/10/03 09:21:02;;;;;;;;;;;19.00;99.90;;;;;;5055641;28;19909;-71
2021/10/03 09:23:29;;;;;;;;;;;19.00;99.90;;;;;;5055687;28;19958;-71
2021/10/03 09:25:56;;;;;;;;;;;19.00;99.90;;;;;;5055085;28;20376;-71
2021/10/03 09:28:25;;;;;;;;;;;19.00;99.90;;;;;;5055880;28;19912;-71
2021/10/03 09:30:58;;;;;;;;;;;19.00;99.90;;;;;;5055351;28;19924;-71
2021/10/03 09:33:25;;;;;;;;;;;19.00;99.90;;;;;;5055245;28;19909;-71
2021/10/03 09:35:56;;;;;;;;;;;19.00;99.90;;;;;;5055394;28;19916;-71
2021/10/03 09:38:23;;;;;;;;;;;19.00;99.90;;;;;;5054949;28;19916;-71
2021/10/03 09:41:01;;;;;;;;;;;19.00;99.90;;;;;;5055340;28;19915;-71
2021/10/03 09:43:42;;;;;;;;;;;19.00;99.90;;;;;;5055245;28;19909;-72
2021/10/03 09:46:09;;;;;;;;;;;19.00;99.90;;;;;;5054699;28;19908;-72
2021/10/03 09:48:49;;;;;;;;;;;19.00;99.90;;;;;;5055307;28;19921;-72
2021/10/03 09:51:16;;;;;;;;;;;18.90;99.90;;;;;;5054992;28;20325;-70
2021/10/03 09:53:44;;;;;;;;;;;19.00;99.90;;;;;;5054447;28;20287;-71
2021/10/03 09:56:12;;;;;;;;;;;18.90;99.90;;;;;;5054750;28;20378;-71
2021/10/03 09:58:40;;;;;;;;;;;18.90;99.90;;;;;;5054954;28;19909;-72
2021/10/03 10:01:07;;;;;;;;;;;18.80;99.90;;;;;;5055059;28;19913;-71
2021/10/03 10:03:37;;;;;;;;;;;18.80;99.90;;;;;;5054854;28;19912;-71
2021/10/03 10:06:04;;;;;;;;;;;18.80;99.90;;;;;;5055009;28;19913;-71
2021/10/03 10:08:32;;;;;;;;;;;18.80;99.90;;;;;;5054377;28;19916;-72
2021/10/03 10:11:14;;;;;;;;;;;18.80;99.90;;;;;;5054537;28;19931;-71
2021/10/03 10:13:40;;;;;;;;;;;18.70;99.90;;;;;;5055017;28;19958;-71
2021/10/03 10:16:25;;;;;;;;;;;18.70;99.90;;;;;;5057213;28;20391;-71
2021/10/03 10:18:52;;;;;;;;;;;18.70;99.90;;;;;;5054527;28;19920;-71
2021/10/03 10:21:22;;;;;;;;;;;18.70;99.90;;;;;;5054471;28;20291;-71
2021/10/03 10:23:49;;;;;;;;;;;18.70;99.90;;;;;;5053761;28;19908;-71
2021/10/03 10:26:37;;;;;;;;;;;18.60;99.90;;;;;;5054442;28;19909;-71
2021/10/03 10:29:08;;;;;;;;;;;18.60;99.90;;;;;;5054246;28;19913;-71
2021/10/03 10:31:54;;;;;;;;;;;18.60;99.90;;;;;;5054242;28;19917;-71
2021/10/03 10:34:22;;;;;;;;;;;18.60;99.90;;;;;;5054301;28;19913;-71
2021/10/03 10:36:52;;;;;;;;;;;18.60;99.90;;;;;;5054375;28;19987;-71
2021/10/03 10:39:20;;;;;;;;;;;18.60;99.90;;;;;;5053863;28;20462;-71
2021/10/03 10:41:54;;;;;;;;;;;18.60;99.90;;;;;;5053894;28;20070;-71
2021/10/03 10:44:32;;;;;;;;;;;18.60;99.90;;;;;;5053945;28;19913;-72
2021/10/03 10:47:15;;;;;;;;;;;18.60;99.90;;;;;;5053945;28;19917;-71
2021/10/03 10:49:47;;;;;;;;;;;18.60;99.90;;;;;;5053978;28;19919;-72
2021/10/03 10:52:22;;;;;;;;;;;18.60;99.90;;;;;;5054206;28;19920;-71
2021/10/03 10:55:09;;;;;;;;;;;18.60;99.90;;;;;;5053578;28;20278;-73
2021/10/03 10:57:57;;;;;;;;;;;18.60;99.90;;;;;;5053889;28;19963;-73
2021/10/03 11:00:25;;;;;;;;;;;18.60;99.90;;;;;;5053790;28;19917;-73
2021/10/03 11:02:53;;;;;;;;;;;18.60;99.90;;;;;;5054047;28;19952;-73
2021/10/03 11:05:36;;;;;;;;;;;18.60;99.90;;;;;;5053591;28;20372;-71
2021/10/03 11:08:10;;;;;;;;;;;18.50;99.90;;;;;;5051421;28;20372;-73
2021/10/03 11:10:55;;;;;;;;;;;18.50;99.90;;;;;;5053400;28;19952;-73
2021/10/03 11:13:46;;;;;;;;;;;18.60;99.90;;;;;;5053623;28;19940;-71
2021/10/03 11:16:22;;;;;;;;;;;18.50;99.90;;;;;;5053361;28;20407;-69
2021/10/03 11:18:49;;;;;;;;;;;18.60;99.90;;;;;;5053852;28;20418;-70
2021/10/03 11:21:19;;;;;;;;;;;18.60;99.90;;;;;;5053634;28;19916;-69
2021/10/03 11:23:47;;;;;;;;;;;18.60;99.90;;;;;;5052674;28;19915;-69
2021/10/03 11:26:14;;;;;;;;;;;18.60;99.90;;;;;;5053050;28;19921;-69
2021/10/03 11:28:49;;;;;;;;;;;18.60;99.90;;;;;;5053335;28;19928;-70
2021/10/03 11:31:34;;;;;;;;;;;18.60;99.90;;;;;;5053131;28;19917;-71
2021/10/03 11:34:01;;;;;;;;;;;18.60;99.90;;;;;;5053197;28;19916;-70
2021/10/03 11:36:28;;;;;;;;;;;18.70;99.90;;;;;;5053356;28;19916;-71
2021/10/03 11:38:59;;;;;;;;;;;18.70;99.90;;;;;;5052959;28;19915;-70
2021/10/03 11:41:27;;;;;;;;;;;18.70;99.90;;;;;;5084153;28;19924;-70
2021/10/03 11:43:54;;;;;;;;;;;18.70;99.90;;;;;;5052884;28;20003;-70
2021/10/03 11:46:21;;;;;;;;;;;18.70;99.90;;;;;;5052951;28;19945;-70
2021/10/03 11:48:54;;;;;;;;;;;18.70;99.90;;;;;;5085214;28;19964;-71
2021/10/03 11:51:24;;;;;;;;;;;18.70;99.90;;;;;;5056775;28;19960;-71
2021/10/03 11:53:52;;;;;;;;;;;18.70;99.90;;;;;;5052264;28;19944;-71
2021/10/03 11:56:19;;;;;;;;;;;18.70;99.90;;;;;;5052643;28;19966;-71
2021/10/03 11:58:47;;;;;;;;;;;18.80;99.90;;;;;;5052740;28;19909;-70
2021/10/03 12:01:13;;;;;;;;;;;18.90;99.90;;;;;;5052617;28;19963;-71
2021/10/03 12:03:51;;;;;;;;;;;19.00;99.90;;;;;;5052511;28;19919;-72
2021/10/03 12:06:17;;;;;;;;;;;19.00;99.90;;;;;;5052590;28;19909;-70
2021/10/03 12:08:46;;;;;;;;;;;19.00;99.90;;;;;;5051929;28;19955;-71
2021/10/03 12:11:13;;;;;;;;;;;19.00;99.90;;;;;;5052431;28;19916;-72
2021/10/03 12:13:41;;;;;;;;;;;19.10;99.90;;;;;;5051070;28;19916;-72
2021/10/03 12:16:17;;;;;;;;;;;19.10;99.90;;;;;;5052524;28;20267;-72
2021/10/03 12:18:45;;;;;;;;;;;19.10;99.90;;;;;;5052494;28;20356;-72
2021/10/03 12:21:15;;;;;;;;;;;19.10;99.90;;;;;;5051522;28;20326;-71
2021/10/03 12:23:42;;;;;;;;;;;19.00;99.90;;;;;;5051680;28;19909;-74
2021/10/03 12:26:11;;;;;;;;;;;19.00;99.90;;;;;;5052342;28;20379;-71
2021/10/03 12:28:58;;;;;;;;;;;19.00;99.90;;;;;;5052263;28;19909;-72
2021/10/03 12:31:35;;;;;;;;;;;19.00;99.90;;;;;;5055022;28;19921;-73
2021/10/03 12:34:03;;;;;;;;;;;19.00;99.90;;;;;;5052432;28;20363;-71
2021/10/03 12:36:30;;;;;;;;;;;19.10;99.90;;;;;;5051960;28;19931;-73
2021/10/03 12:38:56;;;;;;;;;;;19.20;99.90;;;;;;5052132;28;19909;-73
2021/10/03 12:41:24;;;;;;;;;;;19.30;99.90;;;;;;5052128;28;19908;-72
2021/10/03 12:43:51;;;;;;;;;;;19.40;99.90;;;;;;5052127;28;19917;-73
2021/10/03 12:46:19;;;;;;;;;;;19.40;99.90;;;;;;5051565;28;19909;-72
2021/10/03 12:48:45;;;;;;;;;;;19.40;99.90;;;;;;5084309;28;19920;-72
2021/10/03 12:51:12;;;;;;;;;;;19.30;99.90;;;;;;5051841;28;19917;-73
2021/10/03 12:53:38;;;;;;;;;;;19.20;99.90;;;;;;5051623;28;19908;-72
2021/10/03 12:56:05;;;;;;;;;;;19.20;99.90;;;;;;5051774;28;19958;-72
2021/10/03 12:58:32;;;;;;;;;;;19.10;99.90;;;;;;5052128;28;19944;-71
2021/10/03 13:00:59;;;;;;;;;;;19.00;99.90;;;;;;5052009;28;19913;-71
2021/10/03 13:03:25;;;;;;;;;;;18.90;99.90;;;;;;5051955;28;20318;-71
2021/10/03 13:05:52;;;;;;;;;;;18.90;99.90;;;;;;5051703;28;19912;-71
2021/10/03 13:08:18;;;;;;;;;;;18.90;99.90;;;;;;5051844;28;19951;-71
2021/10/03 13:10:45;;;;;;;;;;;18.80;99.90;;;;;;5051806;28;19992;-71
2021/10/03 13:13:12;;;;;;;;;;;18.80;99.90;;;;;;5052035;28;20257;-71
2021/10/03 13:15:38;;;;;;;;;;;18.80;99.90;;;;;;5052031;28;19916;-71
2021/10/03 13:18:05;;;;;;;;;;;18.80;99.90;;;;;;5051857;28;19912;-72
2021/10/03 13:20:31;;;;;;;;;;;18.80;99.90;;;;;;5051906;28;19909;-71
2021/10/03 13:22:58;;;;;;;;;;;18.80;99.90;;;;;;5051901;28;19916;-72
2021/10/03 13:25:25;;;;;;;;;;;18.70;99.90;;;;;;5057375;28;19966;-72
2021/10/03 13:27:51;;;;;;;;;;;18.70;99.90;;;;;;5058865;28;19924;-73
2021/10/03 13:30:18;;;;;;;;;;;18.70;99.90;;;;;;5051990;28;19913;-73
2021/10/03 13:32:45;;;;;;;;;;;18.60;99.90;;;;;;5054376;28;19909;-72
2021/10/03 13:35:12;;;;;;;;;;;18.60;99.90;;;;;;5055728;28;19962;-73
2021/10/03 13:37:39;;;;;;;;;;;18.50;99.90;;;;;;5055336;28;19909;-73
2021/10/03 13:40:06;;;;;;;;;;;18.50;99.90;;;;;;5055297;28;20832;-72
2021/10/03 13:42:33;;;;;;;;;;;18.50;99.90;;;;;;5055578;28;20371;-73
2021/10/03 13:44:59;;;;;;;;;;;18.50;99.90;;;;;;5055475;28;19955;-73
2021/10/03 13:47:26;;;;;;;;;;;18.40;99.90;;;;;;5055105;28;19943;-73
2021/10/03 13:49:53;;;;;;;;;;;18.40;99.90;;;;;;5054922;28;19935;-73
2021/10/03 13:52:19;;;;;;;;;;;18.40;99.90;;;;;;5055288;28;19919;-72
2021/10/03 13:54:46;;;;;;;;;;;18.50;99.90;;;;;;5055193;28;20338;-71
2021/10/03 13:57:13;;;;;;;;;;;18.40;99.90;;;;;;5055029;28;19940;-70
2021/10/03 13:59:39;;;;;;;;;;;18.40;99.90;;;;;;5054767;28;20002;-71
2021/10/03 14:02:06;;;;;;;;;;;18.40;99.90;;;;;;5054996;28;19909;-70
2021/10/03 14:04:33;;;;;;;;;;;18.30;99.90;;;;;;5054889;28;20320;-73
2021/10/03 14:06:59;;;;;;;;;;;18.30;99.90;;;;;;5054866;28;20359;-71
2021/10/03 14:09:26;;;;;;;;;;;18.40;99.90;;;;;;5054521;28;20272;-70
2021/10/03 14:11:53;;;;;;;;;;;18.40;99.90;;;;;;5054551;28;20356;-72
2021/10/03 14:14:19;;;;;;;;;;;18.40;99.90;;;;;;5054866;28;19944;-71
2021/10/03 14:16:46;;;;;;;;;;;18.50;99.90;;;;;;5054777;28;20272;-71
2021/10/03 14:19:13;;;;;;;;;;;18.40;99.90;;;;;;5054617;28;20589;-71
2021/10/03 14:21:39;;;;;;;;;;;18.50;99.90;;;;;;5054321;28;20287;-71